Aérodrome :
LOGIN :

S'inscrire | Disclaimer

   EN    FR    IT 

 










Légende :    VFR   VFR Marginal   IFR   IFR Intensif   IFR Très Intensif
Visi : 
Plafond : 
>= 8 km
>= 3000ft
5 à 8 km
1000 à 3000 ft
1500m à 5 km
500 à 1000 ft
800 à 1500m
200 à 500 ft
< 800m
< 200 ft
Symboles :   Orages  Brouillard  Fortes neiges  Fortes précipitations  Vent > 20 kt
SIGMETs :   Divers  Orages  Givrage  Turbulence  Onde Orograph.  Cendres Volcan.







- Altitude de l'aérodrome : 87 ft
- Code IATA : FSC
- Voir les cartes d'approche


LFKF - Figari

DERNIER METAR :
  • 260330Z AUTO 04006KT 010V070 CAVOK 12/11 Q1008 NOSIG

METARs EXPIRÉS :
  • 260300Z AUTO 03004KT 350V070 CAVOK 12/11 Q1008 NOSIG
  • 260230Z AUTO 06005KT CAVOK 13/11 Q1009 NOSIG
  • 260200Z AUTO 06007KT CAVOK 14/11 Q1009
  • 260130Z AUTO 06006KT CAVOK 14/11 Q1009

TAF TAF LFKF
Valide du 26 à 03h jusqu'au 27 à 03h UTC


260200Z 2603/2703 06007KT 9999 FEW035 BKN070
BECMG 2618/2621 24015KT
TEMPO 2615/2618 RA
Pas de NOTAMs connus pour ce terrain.



MET'MAP, la Météo Aéronautique d'un coup d'oeil ! - Copyright ORBIFLY Décembre 2007 - Disclaimer

ORBIFLY MET'MAP TEAM :

Programmation & Développement : Alexandra Zaïnal
Conception & Développement : Baudouin d'Aumeries
Co-Programmation & Développement : Marc-Olivier Méhu
Soutien technique & logistique : Manuel Goepfert

Contact : metmap@orbifly.com




SOURCES & CREDITS :

   NOAA